createdAt,value
2023-05-03T00:02:12.115Z,11.60
2023-05-03T00:04:39.390Z,11.30
2023-05-03T00:07:06.787Z,9.73
2023-05-03T00:09:36.446Z,10.27
2023-05-03T00:12:04.986Z,10.00
2023-05-03T00:14:32.108Z,8.10
2023-05-03T00:16:59.300Z,7.60
2023-05-03T00:19:31.793Z,11.47
2023-05-03T00:21:59.252Z,11.27
2023-05-03T00:24:26.302Z,8.37
2023-05-03T00:26:52.955Z,9.53
2023-05-03T00:29:21.224Z,7.23
2023-05-03T00:31:47.938Z,8.73
2023-05-03T00:34:15.246Z,8.87
2023-05-03T00:36:42.361Z,12.30
2023-05-03T00:39:09.812Z,13.77
2023-05-03T00:41:36.899Z,10.07
2023-05-03T00:44:03.682Z,10.80
2023-05-03T00:46:30.821Z,10.47
2023-05-03T00:48:57.834Z,9.97
2023-05-03T00:51:27.663Z,10.73
2023-05-03T00:53:54.754Z,8.40
2023-05-03T00:56:23.323Z,10.67
2023-05-03T00:58:52.902Z,10.03
2023-05-03T01:01:20.160Z,11.80
2023-05-03T01:03:48.094Z,8.73
2023-05-03T01:06:37.980Z,8.13
2023-05-03T01:09:32.063Z,9.87
2023-05-03T01:12:11.906Z,9.03
2023-05-03T01:15:06.351Z,7.80
2023-05-03T01:17:39.863Z,9.00
2023-05-03T01:20:10.759Z,11.70
2023-05-03T01:22:49.340Z,11.50
2023-05-03T01:25:16.828Z,9.17
2023-05-03T01:27:43.903Z,7.10
2023-05-03T01:30:12.545Z,9.97
2023-05-03T01:32:42.203Z,8.73
2023-05-03T01:35:21.217Z,8.17
2023-05-03T01:37:49.089Z,7.47
2023-05-03T01:40:19.690Z,14.40
2023-05-03T01:42:47.432Z,12.50
2023-05-03T01:45:14.729Z,12.27
2023-05-03T01:47:41.831Z,7.40
2023-05-03T01:50:09.123Z,7.90
2023-05-03T01:52:36.320Z,9.40
2023-05-03T01:55:03.045Z,9.17
2023-05-03T01:57:30.210Z,8.40
2023-05-03T01:59:57.248Z,10.77
2023-05-03T02:02:24.075Z,8.43
2023-05-03T02:04:51.256Z,11.50
2023-05-03T02:07:17.988Z,10.17
2023-05-03T02:09:45.049Z,9.07
2023-05-03T02:12:12.163Z,11.47
2023-05-03T02:14:39.277Z,9.13
2023-05-03T02:17:08.493Z,9.53
2023-05-03T02:19:35.400Z,9.60
2023-05-03T02:22:02.725Z,14.63
2023-05-03T02:24:31.098Z,8.70
2023-05-03T02:26:58.788Z,10.23
2023-05-03T02:29:25.883Z,9.57
2023-05-03T02:31:53.026Z,11.13
2023-05-03T02:34:20.814Z,11.67
2023-05-03T02:36:47.883Z,12.03
2023-05-03T02:39:14.551Z,11.73
2023-05-03T02:41:41.619Z,7.30
2023-05-03T02:44:08.275Z,10.00
2023-05-03T02:46:35.383Z,11.57
2023-05-03T02:49:03.336Z,10.53
2023-05-03T02:51:30.993Z,14.13
2023-05-03T02:53:58.056Z,9.13
2023-05-03T02:56:26.449Z,11.87
2023-05-03T02:58:53.459Z,8.23
2023-05-03T03:01:20.604Z,9.10
2023-05-03T03:03:48.398Z,8.77
2023-05-03T03:06:15.256Z,12.63
2023-05-03T03:08:42.447Z,10.20
2023-05-03T03:11:09.541Z,9.83
2023-05-03T03:13:39.657Z,10.90
2023-05-03T03:16:09.793Z,10.00
2023-05-03T03:18:37.008Z,8.33
2023-05-03T03:21:04.272Z,8.37
2023-05-03T03:23:31.375Z,12.67
2023-05-03T03:25:58.119Z,13.43
2023-05-03T03:28:25.227Z,12.50
2023-05-03T03:30:52.435Z,10.10
2023-05-03T03:33:19.153Z,9.93
2023-05-03T03:35:46.356Z,9.80
2023-05-03T03:38:13.427Z,11.90
2023-05-03T03:40:40.600Z,10.57
2023-05-03T03:43:07.694Z,10.97
2023-05-03T03:45:34.775Z,12.73
2023-05-03T03:48:01.470Z,12.37
2023-05-03T03:50:28.689Z,12.00
2023-05-03T03:52:55.866Z,11.47
2023-05-03T03:55:22.714Z,11.73
2023-05-03T03:57:49.756Z,10.70
2023-05-03T04:00:16.715Z,11.73
2023-05-03T04:02:43.953Z,12.00
2023-05-03T04:05:10.643Z,10.27
2023-05-03T04:07:37.710Z,9.73
2023-05-03T04:10:05.209Z,10.60
2023-05-03T04:12:33.945Z,9.70
2023-05-03T04:15:00.652Z,11.00
2023-05-03T04:17:27.377Z,10.80
2023-05-03T04:19:54.464Z,12.57
2023-05-03T04:22:21.521Z,9.67
2023-05-03T04:24:48.621Z,10.47
2023-05-03T04:27:15.350Z,10.97
2023-05-03T04:29:42.110Z,11.43
2023-05-03T04:32:09.711Z,12.90
2023-05-03T04:34:37.712Z,10.73
2023-05-03T04:37:05.117Z,9.30
2023-05-03T04:39:32.292Z,10.37
2023-05-03T04:41:59.361Z,11.60
2023-05-03T04:44:26.083Z,13.73
2023-05-03T04:46:53.271Z,9.37
2023-05-03T04:49:20.520Z,8.13
2023-05-03T04:51:47.624Z,9.77
2023-05-03T04:54:14.336Z,13.70
2023-05-03T04:56:41.419Z,12.00
2023-05-03T04:59:08.603Z,11.13
2023-05-03T05:01:35.361Z,11.83
2023-05-03T05:04:02.686Z,10.20
2023-05-03T05:06:29.827Z,10.80
2023-05-03T05:08:56.959Z,11.90
2023-05-03T05:11:24.160Z,11.03
2023-05-03T05:13:50.897Z,12.67
2023-05-03T05:16:19.195Z,9.33
2023-05-03T05:18:46.297Z,11.00
2023-05-03T05:21:16.067Z,9.00
2023-05-03T05:23:42.741Z,9.57
2023-05-03T05:26:09.876Z,12.90
2023-05-03T05:28:36.943Z,8.73
2023-05-03T05:31:03.608Z,7.43
2023-05-03T05:33:30.760Z,9.87
2023-05-03T05:35:57.954Z,11.37
2023-05-03T05:38:24.608Z,9.33
2023-05-03T05:40:51.727Z,11.73
2023-05-03T05:43:18.805Z,14.83
2023-05-03T05:45:45.889Z,9.30
2023-05-03T05:48:13.026Z,8.20
2023-05-03T05:50:40.290Z,9.47
2023-05-03T05:53:09.047Z,9.67
2023-05-03T05:55:36.427Z,9.07
2023-05-03T05:58:03.150Z,6.23
2023-05-03T06:00:30.564Z,5.47
2023-05-03T06:02:57.357Z,10.03
2023-05-03T06:05:24.620Z,4.83
2023-05-03T06:07:51.749Z,5.43
2023-05-03T06:10:18.895Z,5.37
2023-05-03T06:12:45.977Z,5.37
2023-05-03T06:15:13.120Z,7.87
2023-05-03T06:17:39.871Z,5.97
2023-05-03T06:20:11.641Z,7.37
2023-05-03T06:22:38.618Z,6.53
2023-05-03T06:25:07.888Z,7.10
2023-05-03T06:27:34.870Z,5.83
2023-05-03T06:30:01.906Z,5.93
2023-05-03T06:32:33.924Z,5.47
2023-05-03T06:35:01.947Z,6.10
2023-05-03T06:37:28.679Z,5.40
2023-05-03T06:39:56.023Z,9.13
2023-05-03T06:42:23.797Z,6.73
2023-05-03T06:44:50.501Z,6.20
2023-05-03T06:47:20.159Z,6.63
2023-05-03T06:49:47.310Z,6.40
2023-05-03T06:52:14.965Z,8.60
2023-05-03T06:54:42.062Z,6.17
2023-05-03T06:57:10.329Z,6.67
2023-05-03T06:59:37.477Z,7.43
2023-05-03T07:02:04.897Z,6.97
2023-05-03T07:04:31.668Z,5.63
2023-05-03T07:06:58.435Z,7.17
2023-05-03T07:09:41.517Z,7.73
2023-05-03T07:12:09.782Z,6.60
2023-05-03T07:14:36.967Z,7.03
2023-05-03T07:17:06.135Z,6.13
2023-05-03T07:19:33.263Z,7.53
2023-05-03T07:22:00.528Z,7.23
2023-05-03T07:24:27.660Z,4.77
2023-05-03T07:26:54.722Z,6.97
2023-05-03T07:29:22.342Z,5.23
2023-05-03T07:31:50.813Z,5.03
2023-05-03T07:34:18.938Z,6.17
2023-05-03T07:36:45.720Z,5.47
2023-05-03T07:39:12.975Z,6.93
2023-05-03T07:41:40.403Z,7.20
2023-05-03T07:44:07.808Z,5.47
2023-05-03T07:46:35.451Z,7.07
2023-05-03T07:49:03.376Z,5.00
2023-05-03T07:51:31.991Z,7.10
2023-05-03T07:53:59.314Z,5.73
2023-05-03T07:56:27.643Z,6.93
2023-05-03T07:59:07.675Z,4.67
2023-05-03T08:01:36.611Z,5.90
2023-05-03T08:04:04.736Z,7.80
2023-05-03T08:06:32.657Z,6.70
2023-05-03T08:08:59.873Z,5.30
2023-05-03T08:11:29.410Z,7.50
2023-05-03T08:13:56.494Z,5.50
2023-05-03T08:16:23.702Z,5.27
2023-05-03T08:18:51.618Z,5.73
2023-05-03T08:21:19.103Z,4.87
2023-05-03T08:23:46.332Z,6.40
2023-05-03T08:26:14.832Z,6.30
2023-05-03T08:28:42.046Z,6.87
2023-05-03T08:31:09.649Z,6.33
2023-05-03T08:33:36.999Z,7.17
2023-05-03T08:36:03.954Z,6.47
2023-05-03T08:38:31.369Z,5.87
2023-05-03T08:41:04.961Z,5.83
2023-05-03T08:43:37.101Z,5.63
2023-05-03T08:46:03.836Z,6.50
2023-05-03T08:48:31.584Z,8.57
2023-05-03T08:50:59.863Z,6.10
2023-05-03T08:53:26.643Z,6.40
2023-05-03T08:55:53.798Z,6.23
2023-05-03T08:58:20.998Z,5.60
2023-05-03T09:00:48.258Z,5.47
2023-05-03T09:03:15.561Z,7.47
2023-05-03T09:05:44.209Z,5.30
2023-05-03T09:08:12.601Z,6.13
2023-05-03T09:10:42.912Z,6.03
2023-05-03T09:13:10.508Z,6.53
2023-05-03T09:15:37.768Z,5.43
2023-05-03T09:18:19.018Z,6.80
2023-05-03T09:20:52.630Z,6.10
2023-05-03T09:23:30.973Z,15.53
2023-05-03T09:25:58.949Z,6.37
2023-05-03T09:28:25.958Z,26.60
2023-05-03T09:31:06.499Z,5.77
2023-05-03T09:33:33.944Z,6.80
2023-05-03T09:36:05.522Z,4.60
2023-05-03T09:38:33.864Z,6.73
2023-05-03T09:41:05.831Z,6.03
2023-05-03T09:43:33.071Z,5.47
2023-05-03T09:46:10.990Z,4.57
2023-05-03T09:48:38.568Z,8.17
2023-05-03T09:51:06.599Z,5.70
2023-05-03T09:53:34.291Z,7.70
2023-05-03T09:56:12.350Z,5.73
2023-05-03T09:58:40.704Z,6.33
2023-05-03T10:01:08.834Z,5.20
2023-05-03T10:03:41.285Z,4.43
2023-05-03T10:06:30.777Z,7.27
2023-05-03T10:09:16.475Z,7.43
2023-05-03T10:11:58.993Z,5.40
2023-05-03T10:14:26.496Z,6.13
2023-05-03T10:17:00.023Z,5.30
2023-05-03T10:19:34.137Z,5.57
2023-05-03T10:22:11.726Z,7.40
2023-05-03T10:25:01.526Z,9.00
2023-05-03T10:27:52.585Z,7.13
2023-05-03T10:30:29.766Z,6.97
2023-05-03T10:32:57.013Z,4.87
2023-05-03T10:35:27.398Z,4.00
2023-05-03T10:37:56.787Z,4.60
2023-05-03T10:40:23.995Z,7.20
2023-05-03T10:42:53.964Z,4.97
2023-05-03T10:45:30.565Z,5.57
2023-05-03T10:48:12.372Z,5.80
2023-05-03T10:50:39.818Z,7.53
2023-05-03T10:53:06.728Z,6.83
2023-05-03T10:55:34.184Z,5.80
2023-05-03T10:58:01.288Z,6.00
2023-05-03T11:00:37.093Z,4.10
2023-05-03T11:03:04.286Z,5.97
2023-05-03T11:05:33.758Z,7.77
2023-05-03T11:08:13.570Z,5.93
2023-05-03T11:10:41.029Z,4.73
2023-05-03T11:13:07.789Z,5.03
2023-05-03T11:15:34.671Z,4.33
2023-05-03T11:18:01.907Z,5.30
2023-05-03T11:20:29.053Z,4.10
2023-05-03T11:22:56.743Z,4.73
2023-05-03T11:25:23.898Z,6.10
2023-05-03T11:27:50.724Z,4.03
2023-05-03T11:30:18.124Z,4.40
2023-05-03T11:32:45.400Z,5.30
2023-05-03T11:35:17.571Z,2.93
2023-05-03T11:37:45.152Z,4.00
2023-05-03T11:40:17.058Z,5.23
2023-05-03T11:42:59.800Z,6.77
2023-05-03T11:45:33.001Z,6.80
2023-05-03T11:48:00.094Z,4.00
2023-05-03T11:50:51.632Z,5.17
2023-05-03T11:53:19.229Z,4.33
2023-05-03T11:55:48.453Z,6.60
2023-05-03T11:58:20.427Z,8.00
2023-05-03T12:00:49.259Z,4.70
2023-05-03T12:03:31.115Z,3.20
2023-05-03T12:05:59.761Z,6.00
2023-05-03T12:08:32.995Z,3.70
2023-05-03T12:11:03.173Z,5.40
2023-05-03T12:13:38.309Z,6.80
2023-05-03T12:16:12.619Z,4.30
2023-05-03T12:18:50.209Z,4.83
2023-05-03T12:23:55.466Z,4.80
2023-05-03T12:26:25.388Z,5.57
2023-05-03T12:28:56.016Z,4.77
2023-05-03T12:31:23.460Z,4.10
2023-05-03T12:34:09.189Z,3.30
2023-05-03T12:36:38.659Z,5.73
2023-05-03T12:39:10.092Z,4.37
2023-05-03T12:44:10.365Z,3.57
2023-05-03T12:46:38.953Z,4.60
2023-05-03T12:49:08.191Z,4.00
2023-05-03T12:51:36.336Z,4.30
2023-05-03T12:54:09.937Z,4.90
2023-05-03T12:56:40.400Z,4.33
2023-05-03T12:59:39.097Z,3.70
2023-05-03T13:06:59.199Z,5.73
2023-05-03T13:09:37.751Z,4.60
2023-05-03T13:12:14.492Z,6.03
2023-05-03T13:14:42.352Z,4.47
2023-05-03T13:17:09.111Z,4.10
2023-05-03T13:19:36.641Z,4.73
2023-05-03T13:22:03.765Z,4.40
2023-05-03T13:24:31.166Z,5.67
2023-05-03T13:26:58.252Z,2.83
2023-05-03T13:29:24.991Z,4.07
2023-05-03T13:31:52.253Z,3.93
2023-05-03T13:34:19.400Z,4.30
2023-05-03T13:36:46.179Z,5.00
2023-05-03T13:39:13.308Z,4.40
2023-05-03T13:41:42.187Z,7.27
2023-05-03T13:44:10.109Z,5.17
2023-05-03T13:46:37.337Z,4.20
2023-05-03T13:49:08.096Z,5.13
2023-05-03T13:51:35.345Z,3.13
2023-05-03T13:54:03.880Z,3.83
2023-05-03T13:56:31.457Z,3.50
2023-05-03T13:58:58.266Z,4.80
2023-05-03T14:01:26.118Z,3.10
2023-05-03T14:03:54.351Z,4.63
2023-05-03T14:06:23.024Z,3.40
2023-05-03T14:08:50.166Z,3.40
2023-05-03T14:11:18.767Z,4.37
2023-05-03T14:13:56.594Z,2.90
2023-05-03T14:16:39.273Z,3.63
2023-05-03T14:19:07.412Z,2.93
2023-05-03T14:21:34.651Z,6.60
2023-05-03T14:24:01.766Z,5.40
2023-05-03T14:26:29.650Z,3.67
2023-05-03T14:28:57.022Z,3.47
2023-05-03T14:31:24.161Z,5.27
2023-05-03T14:33:51.248Z,4.87
2023-05-03T14:36:17.973Z,3.43
2023-05-03T14:38:45.131Z,4.13
2023-05-03T14:41:12.199Z,6.20
2023-05-03T14:43:39.060Z,3.30
2023-05-03T14:46:06.226Z,3.37
2023-05-03T14:48:33.274Z,2.87
2023-05-03T14:51:00.341Z,2.70
2023-05-03T14:53:27.076Z,4.87
2023-05-03T14:55:54.446Z,3.47
2023-05-03T14:58:21.815Z,3.13
2023-05-03T15:00:49.107Z,5.47
2023-05-03T15:03:16.305Z,3.80
2023-05-03T15:05:47.248Z,4.47
2023-05-03T15:08:15.753Z,3.05
2023-05-03T15:10:44.319Z,3.42
2023-05-03T15:13:12.013Z,5.47
2023-05-03T15:15:39.749Z,2.97
2023-05-03T15:18:08.591Z,3.10
2023-05-03T15:20:35.973Z,3.13
2023-05-03T15:23:04.309Z,5.18
2023-05-03T15:25:31.668Z,2.20
2023-05-03T15:27:59.971Z,4.20
2023-05-03T15:30:28.860Z,3.28
2023-05-03T15:32:55.825Z,3.20
2023-05-03T15:35:22.585Z,2.80
2023-05-03T15:37:49.691Z,4.43
2023-05-03T15:40:17.568Z,5.77
2023-05-03T15:42:44.650Z,2.80
2023-05-03T15:45:12.965Z,4.77
2023-05-03T15:47:40.595Z,5.50
2023-05-03T15:50:08.516Z,3.53
2023-05-03T15:52:35.790Z,3.42
2023-05-03T15:55:03.193Z,5.57
2023-05-03T15:57:30.495Z,4.50
2023-05-03T15:59:57.948Z,7.70
2023-05-03T16:02:27.555Z,5.68
2023-05-03T16:04:54.236Z,3.20
2023-05-03T16:07:21.402Z,2.73
2023-05-03T16:09:48.527Z,3.67
2023-05-03T16:12:15.511Z,4.70
2023-05-03T16:14:42.706Z,2.23
2023-05-03T16:17:09.838Z,6.03
2023-05-03T16:19:37.588Z,3.60
2023-05-03T16:22:05.313Z,2.53
2023-05-03T16:24:34.173Z,2.25
2023-05-03T16:27:04.504Z,2.77
2023-05-03T16:29:33.485Z,3.50
2023-05-03T16:32:01.189Z,3.37
2023-05-03T16:34:28.038Z,2.75
2023-05-03T16:36:55.241Z,2.10
2023-05-03T16:39:22.116Z,4.07
2023-05-03T16:41:49.244Z,2.13
2023-05-03T16:44:18.520Z,3.40
2023-05-03T16:46:46.381Z,3.20
2023-05-03T16:49:13.461Z,3.17
2023-05-03T16:51:41.175Z,3.73
2023-05-03T16:54:07.881Z,3.90
2023-05-03T16:56:35.189Z,2.83
2023-05-03T16:59:03.665Z,3.47
2023-05-03T17:01:30.525Z,5.13
2023-05-03T17:03:57.386Z,3.80
2023-05-03T17:06:24.098Z,3.03
2023-05-03T17:08:50.964Z,3.85
2023-05-03T17:11:17.713Z,3.50
2023-05-03T17:13:45.087Z,3.37
2023-05-03T17:16:15.166Z,2.97
2023-05-03T17:18:42.317Z,4.07
2023-05-03T17:21:09.916Z,5.43
2023-05-03T17:23:38.627Z,4.20
2023-05-03T17:26:10.877Z,4.00
2023-05-03T17:28:37.988Z,5.50
2023-05-03T17:31:08.388Z,4.73
2023-05-03T17:33:35.841Z,3.77
2023-05-03T17:36:04.941Z,3.67
2023-05-03T17:38:33.463Z,3.97
2023-05-03T17:41:05.623Z,3.70
2023-05-03T17:43:33.416Z,4.17
2023-05-03T17:46:08.679Z,7.30
2023-05-03T17:48:39.739Z,4.07
2023-05-03T17:51:07.880Z,2.77
2023-05-03T17:53:35.265Z,3.97
2023-05-03T17:56:02.354Z,4.90
2023-05-03T17:58:29.140Z,4.30
2023-05-03T18:00:57.168Z,4.70
2023-05-03T18:03:25.741Z,4.47
2023-05-03T18:05:53.068Z,4.20
2023-05-03T18:08:19.791Z,6.53
2023-05-03T18:10:47.006Z,5.63
2023-05-03T18:13:14.318Z,5.03
2023-05-03T18:15:41.988Z,8.37
2023-05-03T18:18:09.494Z,7.43
2023-05-03T18:20:36.653Z,5.83
2023-05-03T18:23:03.831Z,10.10
2023-05-03T18:25:31.083Z,3.70
2023-05-03T18:27:58.352Z,4.73
2023-05-03T18:30:29.280Z,6.27
2023-05-03T18:35:25.233Z,6.47
2023-05-03T18:37:53.119Z,4.77
2023-05-03T18:40:20.258Z,5.40
2023-05-03T18:42:46.943Z,4.53
2023-05-03T18:45:15.083Z,7.93
2023-05-03T18:47:42.396Z,3.73
2023-05-03T18:50:09.859Z,3.57
2023-05-03T18:52:37.174Z,7.13
2023-05-03T18:55:04.743Z,3.80
2023-05-03T18:57:31.476Z,7.07
2023-05-03T19:00:01.079Z,5.10
2023-05-03T19:02:31.293Z,6.47
2023-05-03T19:04:59.830Z,3.13
2023-05-03T19:07:27.209Z,7.90
2023-05-03T19:09:55.158Z,8.67
2023-05-03T19:12:22.264Z,3.70
2023-05-03T19:14:49.455Z,4.73
2023-05-03T19:17:17.791Z,3.53
2023-05-03T19:19:45.098Z,5.53
2023-05-03T19:22:11.767Z,8.43
2023-05-03T19:24:39.769Z,5.67
2023-05-03T19:27:06.893Z,3.93
2023-05-03T19:29:34.036Z,4.93
2023-05-03T19:32:00.856Z,6.67
2023-05-03T19:34:28.088Z,6.10
2023-05-03T19:36:55.149Z,7.13
2023-05-03T19:39:22.306Z,4.00
2023-05-03T19:41:50.267Z,4.83
2023-05-03T19:44:18.008Z,8.20
2023-05-03T19:46:45.203Z,5.30
2023-05-03T19:49:12.478Z,3.90
2023-05-03T19:51:39.585Z,5.80
2023-05-03T19:54:06.252Z,7.80
2023-05-03T19:56:34.114Z,7.80
2023-05-03T19:59:01.274Z,5.97
2023-05-03T20:01:28.015Z,6.67
2023-05-03T20:03:55.330Z,7.90
2023-05-03T20:06:22.305Z,3.97
2023-05-03T20:08:51.059Z,5.50
2023-05-03T20:11:19.599Z,6.83
2023-05-03T20:13:46.942Z,4.70
2023-05-03T20:16:14.080Z,6.73
2023-05-03T20:18:42.576Z,6.87
2023-05-03T20:21:09.621Z,6.60
2023-05-03T20:23:36.371Z,6.93
2023-05-03T20:26:03.508Z,6.37
2023-05-03T20:28:32.530Z,4.53
2023-05-03T20:30:59.668Z,4.63
2023-05-03T20:33:26.754Z,5.93
2023-05-03T20:35:53.448Z,6.87
2023-05-03T20:38:20.764Z,5.57
2023-05-03T20:40:47.909Z,4.83
2023-05-03T20:43:14.975Z,3.67
2023-05-03T20:45:41.811Z,5.77
2023-05-03T20:48:08.940Z,7.77
2023-05-03T20:50:36.301Z,8.70
2023-05-03T20:53:03.501Z,5.50
2023-05-03T20:55:30.944Z,10.30
2023-05-03T20:57:58.097Z,4.63
2023-05-03T21:00:25.300Z,4.47
2023-05-03T21:02:54.466Z,5.33
2023-05-03T21:05:22.048Z,5.20
2023-05-03T21:07:49.184Z,5.50
2023-05-03T21:10:16.404Z,5.07
2023-05-03T21:12:43.623Z,4.47
2023-05-03T21:15:10.949Z,7.10
2023-05-03T21:17:38.162Z,5.63
2023-05-03T21:20:05.900Z,5.47
2023-05-03T21:22:32.814Z,7.23
2023-05-03T21:24:59.477Z,4.87
2023-05-03T21:27:26.610Z,5.93
2023-05-03T21:29:53.687Z,5.33
2023-05-03T21:32:20.373Z,4.97
2023-05-03T21:34:47.127Z,3.40
2023-05-03T21:37:13.776Z,6.80
2023-05-03T21:39:40.827Z,4.20
2023-05-03T21:42:07.479Z,6.17
2023-05-03T21:44:35.057Z,4.27
2023-05-03T21:47:02.881Z,4.40
2023-05-03T21:49:29.983Z,5.60
2023-05-03T21:51:57.052Z,5.57
2023-05-03T21:54:24.221Z,5.67
2023-05-03T21:56:51.292Z,6.23
2023-05-03T21:59:18.386Z,7.47
2023-05-03T22:01:45.482Z,5.83
2023-05-03T22:04:12.607Z,5.77
2023-05-03T22:06:39.391Z,6.13
2023-05-03T22:09:07.073Z,4.90
2023-05-03T22:11:33.799Z,5.03
2023-05-03T22:14:07.964Z,5.73
2023-05-03T22:16:37.568Z,4.20
2023-05-03T22:19:05.399Z,3.37
2023-05-03T22:21:32.532Z,5.60
2023-05-03T22:23:59.611Z,5.00
2023-05-03T22:26:26.959Z,5.33
2023-05-03T22:28:54.257Z,5.50
2023-05-03T22:31:20.997Z,5.13
2023-05-03T22:33:48.896Z,5.73
2023-05-03T22:36:16.078Z,5.60
2023-05-03T22:38:43.168Z,5.17
2023-05-03T22:41:11.122Z,5.80
2023-05-03T22:43:38.202Z,8.10
2023-05-03T22:46:05.324Z,4.77
2023-05-03T22:48:34.115Z,5.97
2023-05-03T22:51:00.899Z,6.17
2023-05-03T22:53:27.714Z,7.23
2023-05-03T22:56:02.042Z,5.53
2023-05-03T22:58:29.197Z,6.70
2023-05-03T23:00:57.415Z,6.67
2023-05-03T23:03:24.704Z,9.30
2023-05-03T23:05:53.023Z,5.40
2023-05-03T23:08:20.556Z,5.20
2023-05-03T23:10:47.311Z,6.47
2023-05-03T23:13:14.500Z,5.90
2023-05-03T23:15:41.675Z,7.23
2023-05-03T23:18:08.562Z,4.87
2023-05-03T23:20:35.839Z,9.17
2023-05-03T23:23:02.903Z,6.40
2023-05-03T23:25:30.037Z,6.50
2023-05-03T23:27:56.697Z,7.53
2023-05-03T23:30:24.386Z,5.27
2023-05-03T23:32:51.538Z,5.90
2023-05-03T23:35:19.487Z,4.97
2023-05-03T23:37:46.437Z,5.40
2023-05-03T23:40:13.198Z,6.57
2023-05-03T23:42:41.362Z,5.37
2023-05-03T23:45:09.567Z,5.60
2023-05-03T23:47:36.959Z,6.83
2023-05-03T23:50:04.566Z,7.03
2023-05-03T23:52:31.853Z,8.07
2023-05-03T23:54:59.001Z,6.50
2023-05-03T23:57:26.656Z,7.03
2023-05-03T23:59:53.398Z,8.03
